createdAt,value
2023-02-06T00:04:55.390Z,9.59
2023-02-06T00:10:01.467Z,11.40
2023-02-06T00:15:07.761Z,12.41
2023-02-06T00:20:13.901Z,10.69
2023-02-06T00:25:20.137Z,9.53
2023-02-06T00:30:26.212Z,12.60
2023-02-06T00:35:32.329Z,17.32
2023-02-06T00:40:38.390Z,11.92
2023-02-06T00:45:44.556Z,15.66
2023-02-06T00:50:50.617Z,14.04
2023-02-06T00:55:56.794Z,10.59
2023-02-06T01:01:02.864Z,11.95
2023-02-06T01:06:09.171Z,12.24
2023-02-06T01:11:15.294Z,11.04
2023-02-06T01:16:21.519Z,10.41
2023-02-06T01:21:27.595Z,10.91
2023-02-06T01:26:33.807Z,11.79
2023-02-06T01:31:39.943Z,11.29
2023-02-06T01:36:46.082Z,10.67
2023-02-06T01:41:52.177Z,11.96
2023-02-06T01:46:58.420Z,8.89
2023-02-06T01:52:04.477Z,11.39
2023-02-06T01:57:10.744Z,10.36
2023-02-06T02:02:16.820Z,10.80
2023-02-06T02:07:22.966Z,12.54
2023-02-06T02:12:29.048Z,13.97
2023-02-06T02:17:35.372Z,10.49
2023-02-06T02:22:41.483Z,11.51
2023-02-06T02:27:47.674Z,11.24
2023-02-06T02:32:53.723Z,13.78
2023-02-06T02:38:00.007Z,10.14
2023-02-06T02:43:06.069Z,11.27
2023-02-06T02:48:12.284Z,10.31
2023-02-06T02:53:32.642Z,12.78
2023-02-06T02:58:38.888Z,9.50
2023-02-06T03:03:44.978Z,11.74
2023-02-06T03:08:51.160Z,13.32
2023-02-06T03:13:57.251Z,7.41
2023-02-06T03:19:03.505Z,6.99
2023-02-06T03:24:09.561Z,6.30
2023-02-06T03:29:15.763Z,5.80
2023-02-06T03:34:21.833Z,4.68
2023-02-06T03:39:28.214Z,5.99
2023-02-06T03:44:34.267Z,7.64
2023-02-06T03:49:40.583Z,8.11
2023-02-06T03:54:46.708Z,7.29
2023-02-06T03:59:52.840Z,8.44
2023-02-06T04:05:21.856Z,8.12
2023-02-06T04:10:28.039Z,7.04
2023-02-06T04:15:34.539Z,7.91
2023-02-06T04:20:40.123Z,7.77
2023-02-06T04:25:46.262Z,8.13
2023-02-06T04:30:52.564Z,6.45
2023-02-06T04:35:58.609Z,9.92
2023-02-06T04:41:04.797Z,7.13
2023-02-06T04:46:10.974Z,8.35
2023-02-06T04:51:17.083Z,12.16
2023-02-06T04:56:23.176Z,12.42
2023-02-06T05:01:29.488Z,8.49
2023-02-06T05:06:35.586Z,8.31
2023-02-06T05:11:41.805Z,7.18
2023-02-06T05:16:47.886Z,6.62
2023-02-06T05:21:54.490Z,5.78
2023-02-06T05:27:00.629Z,4.49
2023-02-06T05:32:06.824Z,5.82
2023-02-06T05:37:12.959Z,4.71
2023-02-06T05:42:19.144Z,4.81
2023-02-06T05:47:25.590Z,7.14
2023-02-06T05:52:31.894Z,6.86
2023-02-06T05:57:38.157Z,6.46
2023-02-06T06:02:44.447Z,6.67
2023-02-06T06:07:50.525Z,6.82
2023-02-06T06:12:56.883Z,8.13
2023-02-06T06:18:03.081Z,9.68
2023-02-06T06:23:09.273Z,9.94
2023-02-06T06:28:15.372Z,7.86
2023-02-06T06:33:21.507Z,12.19
2023-02-06T06:38:27.582Z,8.13
2023-02-06T06:43:33.826Z,14.38
2023-02-06T06:48:39.876Z,8.21
2023-02-06T06:53:46.152Z,7.95
2023-02-06T06:58:52.212Z,8.09
2023-02-06T07:03:58.411Z,9.42
2023-02-06T07:09:04.884Z,9.31
2023-02-06T07:14:11.338Z,11.49
2023-02-06T07:19:17.403Z,9.04
2023-02-06T07:24:23.720Z,9.94
2023-02-06T07:29:29.821Z,8.35
2023-02-06T07:34:36.007Z,10.43
2023-02-06T07:39:42.090Z,7.09
2023-02-06T07:44:48.261Z,8.90
2023-02-06T07:49:54.452Z,9.88
2023-02-06T07:55:00.682Z,10.65
2023-02-06T08:00:06.766Z,9.95
2023-02-06T08:05:13.007Z,12.08
2023-02-06T08:10:19.105Z,12.00
2023-02-06T08:15:25.250Z,13.81
2023-02-06T08:20:31.486Z,12.90
2023-02-06T08:25:38.215Z,16.45
2023-02-06T08:30:43.522Z,18.82
2023-02-06T08:35:49.705Z,20.16
2023-02-06T08:40:55.800Z,20.86
2023-02-06T08:46:02.024Z,19.27
2023-02-06T08:51:08.170Z,18.83
2023-02-06T08:56:14.422Z,19.01
2023-02-06T09:01:20.556Z,21.45
2023-02-06T09:06:26.673Z,17.95
2023-02-06T09:11:32.821Z,18.59
2023-02-06T09:16:39.134Z,21.59
2023-02-06T09:21:45.293Z,27.66
2023-02-06T09:26:59.725Z,27.05
2023-02-06T09:31:57.155Z,35.99
2023-02-06T09:37:03.452Z,31.12
2023-02-06T09:42:09.550Z,27.80
2023-02-06T09:47:15.800Z,27.06
2023-02-06T09:52:21.932Z,26.13
2023-02-06T09:57:28.360Z,30.75
2023-02-06T10:02:34.442Z,30.91
2023-02-06T10:07:40.786Z,29.29
2023-02-06T10:12:46.809Z,34.53
2023-02-06T10:18:42.268Z,41.20
2023-02-06T10:23:48.337Z,35.10
2023-02-06T10:28:54.590Z,70.55
2023-02-06T10:34:00.696Z,31.84
2023-02-06T10:39:06.952Z,34.73
2023-02-06T10:44:13.067Z,30.90
2023-02-06T10:49:19.311Z,33.40
2023-02-06T10:54:25.398Z,37.49
2023-02-06T10:59:31.587Z,30.35
2023-02-06T11:04:37.681Z,29.92
2023-02-06T11:09:43.884Z,28.53
2023-02-06T11:14:49.943Z,25.73
2023-02-06T11:19:56.085Z,26.08
2023-02-06T11:25:02.183Z,26.37
2023-02-06T11:30:08.376Z,30.61
2023-02-06T11:35:14.602Z,24.30
2023-02-06T11:40:20.856Z,20.42
2023-02-06T11:45:27.029Z,21.78
2023-02-06T11:50:33.175Z,23.91
2023-02-06T11:55:39.504Z,22.57
2023-02-06T12:00:45.450Z,19.25
2023-02-06T12:05:51.522Z,23.41
2023-02-06T12:10:57.877Z,20.67
2023-02-06T12:16:03.944Z,21.92
2023-02-06T12:21:10.189Z,25.16
2023-02-06T12:26:16.291Z,21.70
2023-02-06T12:31:22.668Z,23.69
2023-02-06T12:36:28.508Z,20.06
2023-02-06T12:41:34.710Z,20.80
2023-02-06T12:46:40.763Z,16.61
2023-02-06T12:51:47.064Z,18.33
2023-02-06T12:57:41.840Z,19.14
2023-02-06T13:02:48.178Z,15.49
2023-02-06T13:07:54.302Z,16.26
2023-02-06T13:13:00.552Z,15.11
2023-02-06T13:19:03.884Z,16.16
2023-02-06T13:24:10.262Z,11.38
2023-02-06T13:29:16.343Z,16.18
2023-02-06T13:34:22.532Z,13.46
2023-02-06T13:39:28.640Z,13.58
2023-02-06T13:44:34.845Z,14.93
2023-02-06T13:49:40.964Z,12.98
2023-02-06T13:54:47.520Z,13.30
2023-02-06T13:59:53.598Z,13.61
2023-02-06T14:04:59.849Z,12.68
2023-02-06T14:10:06.006Z,15.43
2023-02-06T14:15:12.192Z,15.02
2023-02-06T14:20:18.280Z,14.91
2023-02-06T14:25:24.449Z,15.07
2023-02-06T14:30:30.625Z,16.27
2023-02-06T14:35:37.036Z,11.81
2023-02-06T14:40:42.601Z,11.30
2023-02-06T14:46:04.202Z,11.37
2023-02-06T14:50:56.406Z,13.55
2023-02-06T14:56:00.328Z,12.76
2023-02-06T15:01:06.470Z,13.19
2023-02-06T15:06:22.008Z,12.00
2023-02-06T15:11:18.080Z,13.04
2023-02-06T15:16:24.994Z,15.63
2023-02-06T15:21:31.012Z,11.00
2023-02-06T15:26:37.332Z,11.06
2023-02-06T15:31:43.527Z,10.80
2023-02-06T15:36:49.775Z,14.12
2023-02-06T15:41:55.901Z,12.05
2023-02-06T15:47:02.069Z,12.41
2023-02-06T15:52:08.115Z,10.41
2023-02-06T15:57:14.811Z,8.00
2023-02-06T16:02:20.962Z,10.95
2023-02-06T16:07:27.084Z,9.95
2023-02-06T16:12:33.135Z,10.71
2023-02-06T16:17:39.352Z,10.84
2023-02-06T16:22:45.435Z,9.55
2023-02-06T16:27:51.727Z,8.24
2023-02-06T16:32:57.858Z,10.59
2023-02-06T16:38:04.136Z,17.15
2023-02-06T16:43:10.303Z,14.83
2023-02-06T16:48:16.639Z,16.08
2023-02-06T16:53:22.787Z,17.65
2023-02-06T16:58:29.011Z,16.54
2023-02-06T17:03:35.119Z,15.93
2023-02-06T17:08:41.479Z,13.94
2023-02-06T17:13:47.595Z,16.55
2023-02-06T17:18:53.846Z,12.47
2023-02-06T17:23:59.973Z,13.77
2023-02-06T17:29:06.317Z,16.09
2023-02-06T17:34:12.422Z,12.44
2023-02-06T17:39:18.730Z,10.78
2023-02-06T17:44:24.886Z,11.99
2023-02-06T17:49:31.037Z,12.97
2023-02-06T17:54:37.170Z,11.39
2023-02-06T17:59:43.381Z,10.69
2023-02-06T18:04:49.637Z,13.55
2023-02-06T18:09:55.863Z,16.92
2023-02-06T18:15:01.921Z,19.23
2023-02-06T18:20:08.038Z,17.13
2023-02-06T18:25:14.160Z,29.61
2023-02-06T18:30:20.463Z,23.88
2023-02-06T18:35:26.620Z,21.45
2023-02-06T18:40:32.863Z,19.70
2023-02-06T18:45:38.986Z,19.06
2023-02-06T18:50:45.205Z,26.90
2023-02-06T18:55:52.122Z,26.99
2023-02-06T19:00:58.357Z,24.64
2023-02-06T19:06:04.423Z,31.15
2023-02-06T19:11:10.659Z,32.69
2023-02-06T19:16:16.832Z,24.72
2023-02-06T19:21:22.979Z,17.56
2023-02-06T19:26:29.054Z,16.86
2023-02-06T19:31:35.493Z,16.44
2023-02-06T19:36:41.627Z,19.72
2023-02-06T19:41:47.832Z,16.32
2023-02-06T19:46:54.019Z,17.86
2023-02-06T19:52:00.473Z,17.56
2023-02-06T19:57:06.648Z,15.33
2023-02-06T20:02:13.004Z,18.39
2023-02-06T20:07:19.136Z,18.93
2023-02-06T20:12:25.531Z,19.19
2023-02-06T20:17:31.622Z,18.37
2023-02-06T20:22:38.159Z,17.47
2023-02-06T20:27:46.591Z,19.19
2023-02-06T20:32:52.684Z,19.30
2023-02-06T20:37:58.759Z,19.81
2023-02-06T20:43:04.928Z,17.75
2023-02-06T20:48:11.023Z,15.61
2023-02-06T20:53:17.189Z,16.55
2023-02-06T20:58:23.270Z,14.04
2023-02-06T21:03:29.438Z,14.01
2023-02-06T21:08:35.506Z,15.74
2023-02-06T21:13:41.755Z,16.92
2023-02-06T21:18:47.829Z,13.32
2023-02-06T21:23:54.119Z,12.90
2023-02-06T21:29:00.240Z,13.94
2023-02-06T21:34:07.463Z,9.90
2023-02-06T21:39:13.529Z,10.31
2023-02-06T21:44:19.744Z,10.93
2023-02-06T21:49:25.831Z,11.35
2023-02-06T21:54:32.072Z,12.36
2023-02-06T21:59:38.177Z,12.92
2023-02-06T22:04:44.398Z,10.45
2023-02-06T22:09:50.488Z,9.95
2023-02-06T22:14:56.759Z,10.70
2023-02-06T22:20:02.964Z,11.77
2023-02-06T22:25:09.116Z,11.84
2023-02-06T22:30:15.279Z,13.62
2023-02-06T22:35:21.466Z,12.80
2023-02-06T22:40:27.557Z,12.83
2023-02-06T22:45:33.840Z,12.21
2023-02-06T22:50:39.921Z,13.49
2023-02-06T22:55:46.199Z,11.29
2023-02-06T23:00:52.465Z,11.51
2023-02-06T23:05:58.718Z,12.06
2023-02-06T23:11:04.797Z,12.40
2023-02-06T23:16:10.966Z,12.11
2023-02-06T23:21:17.055Z,10.98
2023-02-06T23:26:23.246Z,11.67
2023-02-06T23:31:29.348Z,11.54
2023-02-06T23:36:35.530Z,11.82
2023-02-06T23:41:41.720Z,12.41
2023-02-06T23:46:47.939Z,11.51
2023-02-06T23:51:54.002Z,11.97
2023-02-06T23:57:00.190Z,10.45
